sensor_id;sensor_type;location;lat;lon;timestamp;noise_LAeq;noise_LA_min;noise_LA_max;noise_LA01;noise_LA95
66463;Laerm;56827;52.178;4.500;2024-02-23T00:00:09;55.70;48.88;58.54;;
66463;Laerm;56827;52.178;4.500;2024-02-23T00:00:20;48.60;41.64;53.39;;
66463;Laerm;56827;52.178;4.500;2024-02-23T00:00:31;49.81;40.77;53.47;;
66463;Laerm;56827;52.178;4.500;2024-02-23T00:00:41;65.93;50.91;78.75;;
66463;Laerm;56827;52.178;4.500;2024-02-23T00:00:53;52.68;46.02;59.54;;
66463;Laerm;56827;52.178;4.500;2024-02-23T00:01:04;47.43;45.54;53.55;;
66463;Laerm;56827;52.178;4.500;2024-02-23T00:01:14;47.59;44.09;50.04;;
66463;Laerm;56827;52.178;4.500;2024-02-23T00:01:25;50.54;47.37;53.51;;
66463;Laerm;56827;52.178;4.500;2024-02-23T00:01:35;52.55;48.45;64.83;;
66463;Laerm;56827;52.178;4.500;2024-02-23T00:01:45;50.17;48.09;55.26;;
66463;Laerm;56827;52.178;4.500;2024-02-23T00:01:55;49.20;45.01;53.11;;
66463;Laerm;56827;52.178;4.500;2024-02-23T00:02:06;45.49;42.70;48.92;;
66463;Laerm;56827;52.178;4.500;2024-02-23T00:02:16;42.62;39.75;46.16;;
66463;Laerm;56827;52.178;4.500;2024-02-23T00:02:26;43.26;40.68;46.48;;
66463;Laerm;56827;52.178;4.500;2024-02-23T00:02:37;48.17;43.38;54.85;;
66463;Laerm;56827;52.178;4.500;2024-02-23T00:02:47;45.80;41.42;49.29;;
66463;Laerm;56827;52.178;4.500;2024-02-23T00:02:57;44.43;40.90;50.86;;
66463;Laerm;56827;52.178;4.500;2024-02-23T00:03:08;47.36;44.32;51.90;;
66463;Laerm;56827;52.178;4.500;2024-02-23T00:03:18;53.11;45.13;57.57;;
66463;Laerm;56827;52.178;4.500;2024-02-23T00:03:29;56.89;49.73;61.57;;
66463;Laerm;56827;52.178;4.500;2024-02-23T00:03:39;51.24;45.97;59.16;;
66463;Laerm;56827;52.178;4.500;2024-02-23T00:03:49;46.62;40.64;51.11;;
66463;Laerm;56827;52.178;4.500;2024-02-23T00:03:59;43.62;40.51;46.92;;
66463;Laerm;56827;52.178;4.500;2024-02-23T00:04:12;43.38;40.66;47.36;;
66463;Laerm;56827;52.178;4.500;2024-02-23T00:04:22;46.04;42.39;49.60;;
66463;Laerm;56827;52.178;4.500;2024-02-23T00:04:33;51.07;46.57;55.37;;
66463;Laerm;56827;52.178;4.500;2024-02-23T00:04:43;48.82;42.56;53.08;;
66463;Laerm;56827;52.178;4.500;2024-02-23T00:04:54;45.16;42.19;48.41;;
66463;Laerm;56827;52.178;4.500;2024-02-23T00:05:05;42.95;39.91;46.99;;
66463;Laerm;56827;52.178;4.500;2024-02-23T00:05:15;45.08;39.83;49.21;;
66463;Laerm;56827;52.178;4.500;2024-02-23T00:05:25;45.94;42.93;50.92;;
66463;Laerm;56827;52.178;4.500;2024-02-23T00:05:36;43.23;40.17;46.52;;
66463;Laerm;56827;52.178;4.500;2024-02-23T00:05:46;41.88;38.86;46.16;;
66463;Laerm;56827;52.178;4.500;2024-02-23T00:05:57;42.09;38.28;48.06;;
66463;Laerm;56827;52.178;4.500;2024-02-23T00:06:07;46.14;40.03;51.21;;
66463;Laerm;56827;52.178;4.500;2024-02-23T00:06:18;46.44;40.91;49.66;;
66463;Laerm;56827;52.178;4.500;2024-02-23T00:06:29;44.08;40.87;55.36;;
66463;Laerm;56827;52.178;4.500;2024-02-23T00:06:39;45.43;43.14;52.00;;
66463;Laerm;56827;52.178;4.500;2024-02-23T00:06:49;49.51;45.09;55.38;;
66463;Laerm;56827;52.178;4.500;2024-02-23T00:07:00;55.98;51.11;59.33;;
66463;Laerm;56827;52.178;4.500;2024-02-23T00:07:12;51.54;47.17;59.86;;
66463;Laerm;56827;52.178;4.500;2024-02-23T00:07:23;47.04;44.55;50.16;;
66463;Laerm;56827;52.178;4.500;2024-02-23T00:07:33;46.02;43.30;49.22;;
66463;Laerm;56827;52.178;4.500;2024-02-23T00:07:43;46.60;43.36;49.31;;
66463;Laerm;56827;52.178;4.500;2024-02-23T00:07:54;45.38;41.33;48.59;;
66463;Laerm;56827;52.178;4.500;2024-02-23T00:08:04;42.57;40.27;45.73;;
66463;Laerm;56827;52.178;4.500;2024-02-23T00:08:14;48.26;40.64;53.16;;
66463;Laerm;56827;52.178;4.500;2024-02-23T00:08:24;63.06;43.92;77.59;;
66463;Laerm;56827;52.178;4.500;2024-02-23T00:08:35;61.20;49.22;75.43;;
66463;Laerm;56827;52.178;4.500;2024-02-23T00:08:45;53.59;48.90;63.87;;
66463;Laerm;56827;52.178;4.500;2024-02-23T00:08:57;49.64;47.02;51.93;;
66463;Laerm;56827;52.178;4.500;2024-02-23T00:09:08;56.47;47.41;65.94;;
66463;Laerm;56827;52.178;4.500;2024-02-23T00:09:18;57.27;54.28;60.29;;
66463;Laerm;56827;52.178;4.500;2024-02-23T00:09:28;56.65;50.89;62.61;;
66463;Laerm;56827;52.178;4.500;2024-02-23T00:09:38;58.19;52.53;61.67;;
66463;Laerm;56827;52.178;4.500;2024-02-23T00:09:49;59.10;56.97;60.92;;
66463;Laerm;56827;52.178;4.500;2024-02-23T00:09:59;53.55;49.44;58.58;;
66463;Laerm;56827;52.178;4.500;2024-02-23T00:10:09;55.88;47.80;58.98;;
66463;Laerm;56827;52.178;4.500;2024-02-23T00:10:22;51.75;44.67;57.47;;
66463;Laerm;56827;52.178;4.500;2024-02-23T00:10:32;47.16;43.99;50.49;;
66463;Laerm;56827;52.178;4.500;2024-02-23T00:10:43;45.67;42.61;50.27;;
66463;Laerm;56827;52.178;4.500;2024-02-23T00:10:53;44.99;40.61;49.71;;
66463;Laerm;56827;52.178;4.500;2024-02-23T00:11:03;46.44;42.93;49.17;;
66463;Laerm;56827;52.178;4.500;2024-02-23T00:11:13;43.95;41.01;47.58;;
66463;Laerm;56827;52.178;4.500;2024-02-23T00:11:23;42.97;40.46;49.74;;
66463;Laerm;56827;52.178;4.500;2024-02-23T00:11:34;47.67;42.32;51.72;;
66463;Laerm;56827;52.178;4.500;2024-02-23T00:11:49;47.68;42.09;53.44;;
66463;Laerm;56827;52.178;4.500;2024-02-23T00:11:59;53.13;50.36;56.35;;
66463;Laerm;56827;52.178;4.500;2024-02-23T00:12:10;51.37;49.39;53.67;;
66463;Laerm;56827;52.178;4.500;2024-02-23T00:12:20;49.36;45.84;54.61;;
66463;Laerm;56827;52.178;4.500;2024-02-23T00:12:30;45.26;42.92;48.59;;
66463;Laerm;56827;52.178;4.500;2024-02-23T00:12:41;42.66;40.17;47.53;;
66463;Laerm;56827;52.178;4.500;2024-02-23T00:12:51;46.15;41.75;59.68;;
66463;Laerm;56827;52.178;4.500;2024-02-23T00:13:01;46.45;41.95;52.51;;
66463;Laerm;56827;52.178;4.500;2024-02-23T00:13:12;48.08;43.28;52.93;;
66463;Laerm;56827;52.178;4.500;2024-02-23T00:13:22;47.06;43.77;51.03;;
66463;Laerm;56827;52.178;4.500;2024-02-23T00:13:32;49.63;45.15;54.16;;
66463;Laerm;56827;52.178;4.500;2024-02-23T00:13:42;48.97;46.48;53.75;;
66463;Laerm;56827;52.178;4.500;2024-02-23T00:13:53;47.95;44.61;51.59;;
66463;Laerm;56827;52.178;4.500;2024-02-23T00:14:03;46.83;42.68;49.56;;
66463;Laerm;56827;52.178;4.500;2024-02-23T00:14:14;49.24;43.40;52.39;;
66463;Laerm;56827;52.178;4.500;2024-02-23T00:14:25;43.83;39.82;47.20;;
66463;Laerm;56827;52.178;4.500;2024-02-23T00:14:35;44.07;39.93;47.83;;
66463;Laerm;56827;52.178;4.500;2024-02-23T00:14:46;53.29;46.83;56.47;;
66463;Laerm;56827;52.178;4.500;2024-02-23T00:14:57;52.35;47.85;58.22;;
66463;Laerm;56827;52.178;4.500;2024-02-23T00:15:07;50.79;46.50;60.69;;
66463;Laerm;56827;52.178;4.500;2024-02-23T00:15:17;47.42;43.64;51.66;;
66463;Laerm;56827;52.178;4.500;2024-02-23T00:15:27;54.27;45.73;60.28;;
66463;Laerm;56827;52.178;4.500;2024-02-23T00:15:38;58.38;52.39;65.45;;
66463;Laerm;56827;52.178;4.500;2024-02-23T00:15:48;49.57;46.66;53.83;;
66463;Laerm;56827;52.178;4.500;2024-02-23T00:15:58;49.56;44.53;52.69;;
66463;Laerm;56827;52.178;4.500;2024-02-23T00:16:08;48.17;43.37;51.77;;
66463;Laerm;56827;52.178;4.500;2024-02-23T00:16:19;45.19;43.23;49.50;;
66463;Laerm;56827;52.178;4.500;2024-02-23T00:16:29;44.47;42.00;50.12;;
66463;Laerm;56827;52.178;4.500;2024-02-23T00:16:40;47.43;43.12;51.19;;
66463;Laerm;56827;52.178;4.500;2024-02-23T00:16:50;51.05;45.05;53.30;;
66463;Laerm;56827;52.178;4.500;2024-02-23T00:17:00;52.28;47.43;56.19;;
66463;Laerm;56827;52.178;4.500;2024-02-23T00:17:11;54.16;48.88;59.14;;
66463;Laerm;56827;52.178;4.500;2024-02-23T00:17:22;47.54;43.10;50.09;;
66463;Laerm;56827;52.178;4.500;2024-02-23T00:17:33;43.48;38.87;49.44;;
66463;Laerm;56827;52.178;4.500;2024-02-23T00:17:43;40.65;37.29;48.34;;
66463;Laerm;56827;52.178;4.500;2024-02-23T00:17:53;40.19;36.85;48.45;;
66463;Laerm;56827;52.178;4.500;2024-02-23T00:18:03;46.12;39.49;55.95;;
66463;Laerm;56827;52.178;4.500;2024-02-23T00:18:16;45.01;40.20;48.64;;
66463;Laerm;56827;52.178;4.500;2024-02-23T00:18:27;42.30;39.09;47.15;;
66463;Laerm;56827;52.178;4.500;2024-02-23T00:18:37;40.53;37.82;47.65;;
66463;Laerm;56827;52.178;4.500;2024-02-23T00:18:48;40.83;37.85;48.88;;
66463;Laerm;56827;52.178;4.500;2024-02-23T00:18:58;43.38;39.33;47.23;;
66463;Laerm;56827;52.178;4.500;2024-02-23T00:19:08;44.89;41.92;47.76;;
66463;Laerm;56827;52.178;4.500;2024-02-23T00:19:21;50.65;41.71;63.29;;
66463;Laerm;56827;52.178;4.500;2024-02-23T00:19:32;47.61;44.83;58.63;;
66463;Laerm;56827;52.178;4.500;2024-02-23T00:19:45;57.44;47.71;64.58;;
66463;Laerm;56827;52.178;4.500;2024-02-23T00:19:55;61.98;55.82;74.16;;
66463;Laerm;56827;52.178;4.500;2024-02-23T00:20:08;57.57;51.49;61.14;;
66463;Laerm;56827;52.178;4.500;2024-02-23T00:20:20;53.77;50.80;58.21;;
66463;Laerm;56827;52.178;4.500;2024-02-23T00:20:30;54.35;50.20;57.85;;
66463;Laerm;56827;52.178;4.500;2024-02-23T00:20:41;51.84;48.62;55.21;;
66463;Laerm;56827;52.178;4.500;2024-02-23T00:20:51;50.34;42.70;56.26;;
66463;Laerm;56827;52.178;4.500;2024-02-23T00:21:01;51.85;46.69;57.52;;
66463;Laerm;56827;52.178;4.500;2024-02-23T00:21:11;49.22;45.05;53.62;;
66463;Laerm;56827;52.178;4.500;2024-02-23T00:21:22;49.54;45.11;54.82;;
66463;Laerm;56827;52.178;4.500;2024-02-23T00:21:32;44.92;42.45;47.88;;
66463;Laerm;56827;52.178;4.500;2024-02-23T00:21:43;45.14;41.07;48.15;;
66463;Laerm;56827;52.178;4.500;2024-02-23T00:21:57;44.65;39.87;55.80;;
66463;Laerm;56827;52.178;4.500;2024-02-23T00:22:09;46.68;42.37;50.49;;
66463;Laerm;56827;52.178;4.500;2024-02-23T00:22:20;46.01;42.09;50.76;;
66463;Laerm;56827;52.178;4.500;2024-02-23T00:22:32;58.00;42.79;70.62;;
66463;Laerm;56827;52.178;4.500;2024-02-23T00:22:42;58.74;50.22;64.68;;
66463;Laerm;56827;52.178;4.500;2024-02-23T00:22:52;49.70;44.86;56.01;;
66463;Laerm;56827;52.178;4.500;2024-02-23T00:23:03;47.85;43.35;52.05;;
66463;Laerm;56827;52.178;4.500;2024-02-23T00:23:13;45.80;42.70;50.15;;
66463;Laerm;56827;52.178;4.500;2024-02-23T00:23:23;44.73;41.54;51.33;;
66463;Laerm;56827;52.178;4.500;2024-02-23T00:23:34;51.94;44.06;60.55;;
66463;Laerm;56827;52.178;4.500;2024-02-23T00:23:44;45.40;39.71;51.01;;
66463;Laerm;56827;52.178;4.500;2024-02-23T00:23:54;41.78;39.08;46.75;;
66463;Laerm;56827;52.178;4.500;2024-02-23T00:24:05;43.07;38.70;46.62;;
66463;Laerm;56827;52.178;4.500;2024-02-23T00:24:16;46.45;41.09;51.17;;
66463;Laerm;56827;52.178;4.500;2024-02-23T00:24:26;55.46;48.10;58.92;;
66463;Laerm;56827;52.178;4.500;2024-02-23T00:24:36;56.24;52.41;64.58;;
66463;Laerm;56827;52.178;4.500;2024-02-23T00:24:47;60.02;53.26;76.11;;
66463;Laerm;56827;52.178;4.500;2024-02-23T00:24:57;51.89;46.99;61.76;;
66463;Laerm;56827;52.178;4.500;2024-02-23T00:25:07;47.70;43.59;51.42;;
66463;Laerm;56827;52.178;4.500;2024-02-23T00:25:17;49.47;42.54;58.74;;
66463;Laerm;56827;52.178;4.500;2024-02-23T00:25:29;56.43;46.29;67.11;;
66463;Laerm;56827;52.178;4.500;2024-02-23T00:25:39;43.99;40.44;50.94;;
66463;Laerm;56827;52.178;4.500;2024-02-23T00:25:49;41.50;37.93;49.89;;
66463;Laerm;56827;52.178;4.500;2024-02-23T00:26:00;40.87;37.83;45.75;;
66463;Laerm;56827;52.178;4.500;2024-02-23T00:26:10;41.53;37.99;45.19;;
66463;Laerm;56827;52.178;4.500;2024-02-23T00:26:20;43.92;39.88;48.21;;
66463;Laerm;56827;52.178;4.500;2024-02-23T00:26:30;48.44;43.39;54.41;;
66463;Laerm;56827;52.178;4.500;2024-02-23T00:26:41;45.57;40.22;53.12;;
66463;Laerm;56827;52.178;4.500;2024-02-23T00:26:51;42.23;39.35;48.30;;
66463;Laerm;56827;52.178;4.500;2024-02-23T00:27:01;42.34;39.25;51.22;;
66463;Laerm;56827;52.178;4.500;2024-02-23T00:27:11;51.65;39.80;58.94;;
66463;Laerm;56827;52.178;4.500;2024-02-23T00:27:22;56.60;52.91;60.77;;
66463;Laerm;56827;52.178;4.500;2024-02-23T00:27:32;59.45;51.54;69.31;;
66463;Laerm;56827;52.178;4.500;2024-02-23T00:27:42;51.36;47.53;54.02;;
66463;Laerm;56827;52.178;4.500;2024-02-23T00:27:56;54.42;49.89;59.14;;
66463;Laerm;56827;52.178;4.500;2024-02-23T00:28:06;56.74;45.84;65.32;;
66463;Laerm;56827;52.178;4.500;2024-02-23T00:28:16;47.35;42.49;50.58;;
66463;Laerm;56827;52.178;4.500;2024-02-23T00:28:26;47.72;42.93;51.35;;
66463;Laerm;56827;52.178;4.500;2024-02-23T00:28:37;46.14;42.96;48.82;;
66463;Laerm;56827;52.178;4.500;2024-02-23T00:28:47;44.37;41.74;48.32;;
66463;Laerm;56827;52.178;4.500;2024-02-23T00:28:57;59.70;45.48;65.91;;
66463;Laerm;56827;52.178;4.500;2024-02-23T00:29:08;51.45;41.57;62.05;;
66463;Laerm;56827;52.178;4.500;2024-02-23T00:29:19;40.20;36.81;49.35;;
66463;Laerm;56827;52.178;4.500;2024-02-23T00:29:29;41.00;38.41;46.73;;
66463;Laerm;56827;52.178;4.500;2024-02-23T00:29:39;42.27;39.22;47.72;;
66463;Laerm;56827;52.178;4.500;2024-02-23T00:29:50;48.18;38.32;62.85;;
66463;Laerm;56827;52.178;4.500;2024-02-23T00:30:01;44.59;37.90;60.09;;
66463;Laerm;56827;52.178;4.500;2024-02-23T00:30:11;39.58;36.80;44.94;;
66463;Laerm;56827;52.178;4.500;2024-02-23T00:30:21;40.26;37.08;49.33;;
66463;Laerm;56827;52.178;4.500;2024-02-23T00:30:31;43.01;39.06;48.35;;
66463;Laerm;56827;52.178;4.500;2024-02-23T00:30:42;47.54;39.04;53.14;;
66463;Laerm;56827;52.178;4.500;2024-02-23T00:30:52;50.20;43.93;59.80;;
66463;Laerm;56827;52.178;4.500;2024-02-23T00:31:03;50.48;40.65;57.29;;
66463;Laerm;56827;52.178;4.500;2024-02-23T00:31:13;42.25;38.79;47.98;;
66463;Laerm;56827;52.178;4.500;2024-02-23T00:31:23;42.33;39.58;48.78;;
66463;Laerm;56827;52.178;4.500;2024-02-23T00:31:33;43.68;39.49;47.73;;
66463;Laerm;56827;52.178;4.500;2024-02-23T00:31:43;43.35;39.48;46.88;;
66463;Laerm;56827;52.178;4.500;2024-02-23T00:31:56;42.00;37.47;47.49;;
66463;Laerm;56827;52.178;4.500;2024-02-23T00:32:07;43.58;38.94;49.00;;
66463;Laerm;56827;52.178;4.500;2024-02-23T00:32:17;46.98;39.77;52.55;;
66463;Laerm;56827;52.178;4.500;2024-02-23T00:32:27;49.15;45.72;55.56;;
66463;Laerm;56827;52.178;4.500;2024-02-23T00:32:37;48.90;45.93;55.36;;
66463;Laerm;56827;52.178;4.500;2024-02-23T00:32:48;47.71;42.05;52.15;;
66463;Laerm;56827;52.178;4.500;2024-02-23T00:32:58;44.75;42.28;50.16;;
66463;Laerm;56827;52.178;4.500;2024-02-23T00:33:08;46.97;42.95;50.36;;
66463;Laerm;56827;52.178;4.500;2024-02-23T00:33:20;48.59;44.22;54.01;;
66463;Laerm;56827;52.178;4.500;2024-02-23T00:33:30;44.86;41.60;48.32;;
66463;Laerm;56827;52.178;4.500;2024-02-23T00:33:40;42.25;38.14;48.59;;
66463;Laerm;56827;52.178;4.500;2024-02-23T00:33:52;40.41;37.83;45.44;;
66463;Laerm;56827;52.178;4.500;2024-02-23T00:34:02;40.54;36.73;47.24;;
66463;Laerm;56827;52.178;4.500;2024-02-23T00:34:13;41.13;38.28;47.90;;
66463;Laerm;56827;52.178;4.500;2024-02-23T00:34:24;39.56;36.45;47.62;;
66463;Laerm;56827;52.178;4.500;2024-02-23T00:34:34;39.97;36.84;46.10;;
66463;Laerm;56827;52.178;4.500;2024-02-23T00:34:44;42.02;37.72;47.67;;
66463;Laerm;56827;52.178;4.500;2024-02-23T00:34:56;42.15;37.21;51.01;;
66463;Laerm;56827;52.178;4.500;2024-02-23T00:35:07;40.45;36.41;48.70;;
66463;Laerm;56827;52.178;4.500;2024-02-23T00:35:17;44.23;40.11;50.25;;
66463;Laerm;56827;52.178;4.500;2024-02-23T00:35:27;41.29;38.76;48.07;;
66463;Laerm;56827;52.178;4.500;2024-02-23T00:35:37;46.38;38.40;51.27;;
66463;Laerm;56827;52.178;4.500;2024-02-23T00:35:47;48.17;44.09;52.70;;
66463;Laerm;56827;52.178;4.500;2024-02-23T00:35:58;42.98;39.29;47.04;;
66463;Laerm;56827;52.178;4.500;2024-02-23T00:36:08;44.15;41.07;48.67;;
66463;Laerm;56827;52.178;4.500;2024-02-23T00:36:18;46.42;43.14;51.27;;
66463;Laerm;56827;52.178;4.500;2024-02-23T00:36:29;47.66;41.55;58.75;;
66463;Laerm;56827;52.178;4.500;2024-02-23T00:36:39;46.08;43.70;49.33;;
66463;Laerm;56827;52.178;4.500;2024-02-23T00:36:50;48.65;39.55;53.72;;
66463;Laerm;56827;52.178;4.500;2024-02-23T00:37:00;49.01;42.14;55.80;;
66463;Laerm;56827;52.178;4.500;2024-02-23T00:37:12;50.19;44.63;53.36;;
66463;Laerm;56827;52.178;4.500;2024-02-23T00:37:22;54.40;50.16;64.49;;
66463;Laerm;56827;52.178;4.500;2024-02-23T00:37:32;54.99;51.85;56.86;;
66463;Laerm;56827;52.178;4.500;2024-02-23T00:37:45;50.82;43.10;65.26;;
66463;Laerm;56827;52.178;4.500;2024-02-23T00:37:56;43.65;41.14;48.09;;
66463;Laerm;56827;52.178;4.500;2024-02-23T00:38:06;42.97;38.77;48.20;;
66463;Laerm;56827;52.178;4.500;2024-02-23T00:38:17;43.62;39.18;48.01;;
66463;Laerm;56827;52.178;4.500;2024-02-23T00:38:27;41.07;38.19;46.47;;
66463;Laerm;56827;52.178;4.500;2024-02-23T00:38:38;42.08;39.13;47.04;;
66463;Laerm;56827;52.178;4.500;2024-02-23T00:38:48;41.78;38.05;46.48;;
66463;Laerm;56827;52.178;4.500;2024-02-23T00:38:58;47.01;38.57;52.47;;
66463;Laerm;56827;52.178;4.500;2024-02-23T00:39:08;43.65;39.87;48.85;;
66463;Laerm;56827;52.178;4.500;2024-02-23T00:39:19;39.59;36.54;44.93;;
66463;Laerm;56827;52.178;4.500;2024-02-23T00:39:29;39.91;36.75;45.38;;
66463;Laerm;56827;52.178;4.500;2024-02-23T00:39:41;46.93;41.44;53.03;;
66463;Laerm;56827;52.178;4.500;2024-02-23T00:39:51;47.25;43.71;55.60;;
66463;Laerm;56827;52.178;4.500;2024-02-23T00:40:04;50.73;46.40;55.30;;
66463;Laerm;56827;52.178;4.500;2024-02-23T00:40:15;49.26;43.36;54.96;;
66463;Laerm;56827;52.178;4.500;2024-02-23T00:40:25;44.26;41.40;47.46;;
66463;Laerm;56827;52.178;4.500;2024-02-23T00:40:36;41.82;38.31;46.96;;
66463;Laerm;56827;52.178;4.500;2024-02-23T00:40:46;41.34;37.49;47.58;;
66463;Laerm;56827;52.178;4.500;2024-02-23T00:40:56;40.07;37.47;46.00;;
66463;Laerm;56827;52.178;4.500;2024-02-23T00:41:06;39.89;36.57;44.78;;
66463;Laerm;56827;52.178;4.500;2024-02-23T00:41:16;52.36;41.40;58.38;;
66463;Laerm;56827;52.178;4.500;2024-02-23T00:41:27;51.50;46.31;57.23;;
66463;Laerm;56827;52.178;4.500;2024-02-23T00:41:37;48.13;44.69;52.97;;
66463;Laerm;56827;52.178;4.500;2024-02-23T00:41:48;45.10;42.04;48.51;;
66463;Laerm;56827;52.178;4.500;2024-02-23T00:41:58;47.78;41.65;54.19;;
66463;Laerm;56827;52.178;4.500;2024-02-23T00:42:09;52.88;48.44;55.93;;
66463;Laerm;56827;52.178;4.500;2024-02-23T00:42:19;50.69;44.74;55.43;;
66463;Laerm;56827;52.178;4.500;2024-02-23T00:42:31;48.03;42.20;53.26;;
66463;Laerm;56827;52.178;4.500;2024-02-23T00:42:41;45.44;42.98;49.34;;
66463;Laerm;56827;52.178;4.500;2024-02-23T00:42:51;46.41;42.21;51.03;;
66463;Laerm;56827;52.178;4.500;2024-02-23T00:43:02;45.79;41.92;49.86;;
66463;Laerm;56827;52.178;4.500;2024-02-23T00:43:13;44.01;40.43;48.80;;
66463;Laerm;56827;52.178;4.500;2024-02-23T00:43:23;42.92;37.91;49.38;;
66463;Laerm;56827;52.178;4.500;2024-02-23T00:43:40;40.93;37.01;47.17;;
66463;Laerm;56827;52.178;4.500;2024-02-23T00:43:50;46.03;40.71;50.40;;
66463;Laerm;56827;52.178;4.500;2024-02-23T00:44:01;46.10;42.14;50.15;;
66463;Laerm;56827;52.178;4.500;2024-02-23T00:44:11;44.30;39.97;48.93;;
66463;Laerm;56827;52.178;4.500;2024-02-23T00:44:22;49.91;44.45;68.33;;
66463;Laerm;56827;52.178;4.500;2024-02-23T00:44:32;45.08;41.72;48.69;;
66463;Laerm;56827;52.178;4.500;2024-02-23T00:44:42;49.49;44.57;58.05;;
66463;Laerm;56827;52.178;4.500;2024-02-23T00:44:52;43.95;41.28;48.73;;
66463;Laerm;56827;52.178;4.500;2024-02-23T00:45:03;45.46;42.61;49.74;;
66463;Laerm;56827;52.178;4.500;2024-02-23T00:45:13;49.01;43.01;55.60;;
66463;Laerm;56827;52.178;4.500;2024-02-23T00:45:23;59.54;46.56;72.69;;
66463;Laerm;56827;52.178;4.500;2024-02-23T00:45:34;55.30;49.04;67.42;;
66463;Laerm;56827;52.178;4.500;2024-02-23T00:45:44;58.83;52.79;67.13;;
66463;Laerm;56827;52.178;4.500;2024-02-23T00:45:55;58.80;48.92;71.46;;
66463;Laerm;56827;52.178;4.500;2024-02-23T00:46:05;64.54;55.88;73.11;;
66463;Laerm;56827;52.178;4.500;2024-02-23T00:46:15;58.25;52.38;65.21;;
66463;Laerm;56827;52.178;4.500;2024-02-23T00:46:25;54.99;48.43;62.97;;
66463;Laerm;56827;52.178;4.500;2024-02-23T00:46:36;51.69;45.93;57.81;;
66463;Laerm;56827;52.178;4.500;2024-02-23T00:46:46;47.75;45.53;53.34;;
66463;Laerm;56827;52.178;4.500;2024-02-23T00:46:56;48.46;44.86;53.92;;
66463;Laerm;56827;52.178;4.500;2024-02-23T00:47:11;47.00;42.44;50.88;;
66463;Laerm;56827;52.178;4.500;2024-02-23T00:47:21;54.93;44.28;68.81;;
66463;Laerm;56827;52.178;4.500;2024-02-23T00:47:31;51.41;48.73;54.10;;
66463;Laerm;56827;52.178;4.500;2024-02-23T00:47:42;48.26;45.27;50.96;;
66463;Laerm;56827;52.178;4.500;2024-02-23T00:47:53;49.86;46.64;57.15;;
66463;Laerm;56827;52.178;4.500;2024-02-23T00:48:03;52.85;49.01;57.97;;
66463;Laerm;56827;52.178;4.500;2024-02-23T00:48:13;48.52;43.66;53.27;;
66463;Laerm;56827;52.178;4.500;2024-02-23T00:48:24;43.96;40.94;50.14;;
66463;Laerm;56827;52.178;4.500;2024-02-23T00:48:34;49.75;42.30;55.12;;
66463;Laerm;56827;52.178;4.500;2024-02-23T00:48:44;49.13;44.91;54.32;;
66463;Laerm;56827;52.178;4.500;2024-02-23T00:48:54;47.56;44.21;52.82;;
66463;Laerm;56827;52.178;4.500;2024-02-23T00:49:05;49.12;46.37;52.66;;
66463;Laerm;56827;52.178;4.500;2024-02-23T00:49:16;57.68;47.76;61.02;;
66463;Laerm;56827;52.178;4.500;2024-02-23T00:49:27;60.52;52.77;73.25;;
66463;Laerm;56827;52.178;4.500;2024-02-23T00:49:37;49.90;45.86;57.09;;
66463;Laerm;56827;52.178;4.500;2024-02-23T00:49:47;50.34;45.80;55.82;;
66463;Laerm;56827;52.178;4.500;2024-02-23T00:49:57;45.34;41.09;48.76;;
66463;Laerm;56827;52.178;4.500;2024-02-23T00:50:08;44.14;40.90;47.42;;
66463;Laerm;56827;52.178;4.500;2024-02-23T00:50:18;42.63;39.50;46.92;;
66463;Laerm;56827;52.178;4.500;2024-02-23T00:50:28;43.19;40.28;47.24;;
66463;Laerm;56827;52.178;4.500;2024-02-23T00:50:39;43.91;40.30;49.01;;
66463;Laerm;56827;52.178;4.500;2024-02-23T00:50:49;46.62;41.32;50.77;;
66463;Laerm;56827;52.178;4.500;2024-02-23T00:51:00;46.37;42.23;50.21;;
66463;Laerm;56827;52.178;4.500;2024-02-23T00:51:10;43.12;40.17;54.90;;
66463;Laerm;56827;52.178;4.500;2024-02-23T00:51:20;43.21;39.33;50.43;;
66463;Laerm;56827;52.178;4.500;2024-02-23T00:51:30;43.81;38.41;48.46;;
66463;Laerm;56827;52.178;4.500;2024-02-23T00:51:41;43.67;40.74;47.09;;
66463;Laerm;56827;52.178;4.500;2024-02-23T00:51:51;47.60;42.14;52.34;;
66463;Laerm;56827;52.178;4.500;2024-02-23T00:52:01;52.49;48.26;58.92;;
66463;Laerm;56827;52.178;4.500;2024-02-23T00:52:12;51.13;45.95;55.02;;
66463;Laerm;56827;52.178;4.500;2024-02-23T00:52:22;44.98;41.81;47.98;;
66463;Laerm;56827;52.178;4.500;2024-02-23T00:52:32;49.28;42.19;51.94;;
66463;Laerm;56827;52.178;4.500;2024-02-23T00:52:42;49.32;46.18;53.08;;
66463;Laerm;56827;52.178;4.500;2024-02-23T00:52:53;48.02;43.03;60.91;;
66463;Laerm;56827;52.178;4.500;2024-02-23T00:53:03;44.89;39.46;49.67;;
66463;Laerm;56827;52.178;4.500;2024-02-23T00:53:14;43.52;40.25;51.75;;
66463;Laerm;56827;52.178;4.500;2024-02-23T00:53:24;44.58;39.99;53.17;;
66463;Laerm;56827;52.178;4.500;2024-02-23T00:53:34;46.56;42.37;50.45;;
66463;Laerm;56827;52.178;4.500;2024-02-23T00:53:44;52.04;47.00;60.03;;
66463;Laerm;56827;52.178;4.500;2024-02-23T00:53:55;58.26;50.97;67.24;;
66463;Laerm;56827;52.178;4.500;2024-02-23T00:54:05;58.09;51.45;70.60;;
66463;Laerm;56827;52.178;4.500;2024-02-23T00:54:17;53.69;46.89;60.75;;
66463;Laerm;56827;52.178;4.500;2024-02-23T00:54:28;49.77;46.70;52.30;;
66463;Laerm;56827;52.178;4.500;2024-02-23T00:54:38;53.02;48.28;63.28;;
66463;Laerm;56827;52.178;4.500;2024-02-23T00:54:48;51.52;47.05;57.49;;
66463;Laerm;56827;52.178;4.500;2024-02-23T00:54:58;50.23;47.88;53.30;;
66463;Laerm;56827;52.178;4.500;2024-02-23T00:55:09;46.83;43.89;49.80;;
66463;Laerm;56827;52.178;4.500;2024-02-23T00:55:19;44.34;40.34;46.94;;
66463;Laerm;56827;52.178;4.500;2024-02-23T00:55:29;51.22;40.26;56.62;;
66463;Laerm;56827;52.178;4.500;2024-02-23T00:55:39;46.76;43.34;49.71;;
66463;Laerm;56827;52.178;4.500;2024-02-23T00:55:50;49.09;43.78;61.81;;
66463;Laerm;56827;52.178;4.500;2024-02-23T00:56:00;47.08;43.14;50.20;;
66463;Laerm;56827;52.178;4.500;2024-02-23T00:56:10;43.70;40.53;47.44;;
66463;Laerm;56827;52.178;4.500;2024-02-23T00:56:20;43.65;38.65;48.41;;
66463;Laerm;56827;52.178;4.500;2024-02-23T00:56:31;47.57;40.10;55.99;;
66463;Laerm;56827;52.178;4.500;2024-02-23T00:56:41;46.40;43.57;49.19;;
66463;Laerm;56827;52.178;4.500;2024-02-23T00:56:51;58.48;44.25;64.80;;
66463;Laerm;56827;52.178;4.500;2024-02-23T00:57:02;50.65;45.90;55.31;;
66463;Laerm;56827;52.178;4.500;2024-02-23T00:57:12;53.90;49.73;57.83;;
66463;Laerm;56827;52.178;4.500;2024-02-23T00:57:22;48.28;44.22;51.48;;
66463;Laerm;56827;52.178;4.500;2024-02-23T00:57:37;45.96;41.94;50.17;;
66463;Laerm;56827;52.178;4.500;2024-02-23T00:57:48;45.16;40.66;54.96;;
66463;Laerm;56827;52.178;4.500;2024-02-23T00:57:58;46.75;44.63;48.80;;
66463;Laerm;56827;52.178;4.500;2024-02-23T00:58:09;50.29;42.10;57.67;;
66463;Laerm;56827;52.178;4.500;2024-02-23T00:58:19;63.04;57.12;73.91;;
66463;Laerm;56827;52.178;4.500;2024-02-23T00:58:29;60.93;50.08;77.09;;
66463;Laerm;56827;52.178;4.500;2024-02-23T00:58:40;52.33;47.48;67.02;;
66463;Laerm;56827;52.178;4.500;2024-02-23T00:58:50;47.15;44.56;53.05;;
66463;Laerm;56827;52.178;4.500;2024-02-23T00:59:00;44.89;40.49;49.78;;
66463;Laerm;56827;52.178;4.500;2024-02-23T00:59:10;41.39;38.62;46.57;;